sensor_id;sensor_type;location;lat;lon;timestamp;P1;durP1;ratioP1;P2;durP2;ratioP2
35839;SDS011;35514;50.504;30.500;2023-02-22T00:00:34;8.75;;;3.47;;
35839;SDS011;35514;50.504;30.500;2023-02-22T00:05:36;7.70;;;3.45;;
35839;SDS011;35514;50.504;30.500;2023-02-22T00:08:05;6.75;;;3.50;;
35839;SDS011;35514;50.504;30.500;2023-02-22T00:10:34;9.95;;;3.58;;
35839;SDS011;35514;50.504;30.500;2023-02-22T00:13:06;7.90;;;3.72;;
35839;SDS011;35514;50.504;30.500;2023-02-22T00:15:34;7.20;;;3.47;;
35839;SDS011;35514;50.504;30.500;2023-02-22T00:18:02;9.50;;;3.45;;
35839;SDS011;35514;50.504;30.500;2023-02-22T00:20:30;7.20;;;3.63;;
35839;SDS011;35514;50.504;30.500;2023-02-22T00:22:57;8.45;;;3.67;;
35839;SDS011;35514;50.504;30.500;2023-02-22T00:25:26;5.03;;;2.90;;
35839;SDS011;35514;50.504;30.500;2023-02-22T00:27:54;7.18;;;3.72;;
35839;SDS011;35514;50.504;30.500;2023-02-22T00:30:24;7.45;;;3.42;;
35839;SDS011;35514;50.504;30.500;2023-02-22T00:32:54;7.88;;;3.47;;
35839;SDS011;35514;50.504;30.500;2023-02-22T00:35:22;11.13;;;3.83;;
35839;SDS011;35514;50.504;30.500;2023-02-22T00:37:52;8.40;;;3.67;;
35839;SDS011;35514;50.504;30.500;2023-02-22T00:40:21;7.70;;;3.63;;
35839;SDS011;35514;50.504;30.500;2023-02-22T00:42:49;7.70;;;4.10;;
35839;SDS011;35514;50.504;30.500;2023-02-22T00:45:17;7.20;;;3.38;;
35839;SDS011;35514;50.504;30.500;2023-02-22T00:47:46;5.93;;;3.40;;
35839;SDS011;35514;50.504;30.500;2023-02-22T00:50:14;9.10;;;2.97;;
35839;SDS011;35514;50.504;30.500;2023-02-22T00:52:42;6.45;;;3.00;;
35839;SDS011;35514;50.504;30.500;2023-02-22T00:55:13;9.60;;;3.20;;
35839;SDS011;35514;50.504;30.500;2023-02-22T00:57:41;5.95;;;3.72;;
35839;SDS011;35514;50.504;30.500;2023-02-22T01:00:13;8.32;;;3.72;;
35839;SDS011;35514;50.504;30.500;2023-02-22T01:02:41;11.25;;;3.60;;
35839;SDS011;35514;50.504;30.500;2023-02-22T01:05:12;13.55;;;4.38;;
35839;SDS011;35514;50.504;30.500;2023-02-22T01:07:41;7.90;;;3.63;;
35839;SDS011;35514;50.504;30.500;2023-02-22T01:10:10;7.60;;;3.92;;
35839;SDS011;35514;50.504;30.500;2023-02-22T01:12:38;7.93;;;3.83;;
35839;SDS011;35514;50.504;30.500;2023-02-22T01:15:07;7.72;;;3.70;;
35839;SDS011;35514;50.504;30.500;2023-02-22T01:17:36;8.18;;;4.45;;
35839;SDS011;35514;50.504;30.500;2023-02-22T01:20:04;8.40;;;3.45;;
35839;SDS011;35514;50.504;30.500;2023-02-22T01:22:36;8.82;;;3.85;;
35839;SDS011;35514;50.504;30.500;2023-02-22T01:25:04;10.45;;;4.25;;
35839;SDS011;35514;50.504;30.500;2023-02-22T01:27:33;8.90;;;4.00;;
35839;SDS011;35514;50.504;30.500;2023-02-22T01:30:01;8.18;;;3.95;;
35839;SDS011;35514;50.504;30.500;2023-02-22T01:32:34;8.23;;;4.07;;
35839;SDS011;35514;50.504;30.500;2023-02-22T01:35:02;10.63;;;4.15;;
35839;SDS011;35514;50.504;30.500;2023-02-22T01:37:30;10.80;;;4.10;;
35839;SDS011;35514;50.504;30.500;2023-02-22T01:39:59;8.98;;;4.30;;
35839;SDS011;35514;50.504;30.500;2023-02-22T01:42:27;8.95;;;4.13;;
35839;SDS011;35514;50.504;30.500;2023-02-22T01:47:42;8.68;;;3.75;;
35839;SDS011;35514;50.504;30.500;2023-02-22T01:50:10;6.90;;;3.63;;
35839;SDS011;35514;50.504;30.500;2023-02-22T01:52:37;8.00;;;3.85;;
35839;SDS011;35514;50.504;30.500;2023-02-22T01:55:06;7.70;;;3.35;;
35839;SDS011;35514;50.504;30.500;2023-02-22T01:57:34;10.90;;;3.50;;
35839;SDS011;35514;50.504;30.500;2023-02-22T02:00:08;7.95;;;2.72;;
35839;SDS011;35514;50.504;30.500;2023-02-22T02:02:37;5.25;;;2.65;;
35839;SDS011;35514;50.504;30.500;2023-02-22T02:05:06;7.40;;;3.10;;
35839;SDS011;35514;50.504;30.500;2023-02-22T02:07:34;7.38;;;3.45;;
35839;SDS011;35514;50.504;30.500;2023-02-22T02:10:03;5.22;;;2.97;;
35839;SDS011;35514;50.504;30.500;2023-02-22T02:12:34;12.48;;;3.30;;
35839;SDS011;35514;50.504;30.500;2023-02-22T02:15:19;8.38;;;3.38;;
35839;SDS011;35514;50.504;30.500;2023-02-22T02:17:47;5.80;;;3.10;;
35839;SDS011;35514;50.504;30.500;2023-02-22T02:20:16;8.70;;;3.13;;
35839;SDS011;35514;50.504;30.500;2023-02-22T02:22:46;8.43;;;3.55;;
35839;SDS011;35514;50.504;30.500;2023-02-22T02:25:30;10.35;;;4.30;;
35839;SDS011;35514;50.504;30.500;2023-02-22T02:28:11;5.72;;;2.53;;
35839;SDS011;35514;50.504;30.500;2023-02-22T02:30:45;5.88;;;2.90;;
35839;SDS011;35514;50.504;30.500;2023-02-22T02:33:16;8.07;;;2.47;;
35839;SDS011;35514;50.504;30.500;2023-02-22T02:35:49;8.93;;;3.70;;
35839;SDS011;35514;50.504;30.500;2023-02-22T02:38:38;6.72;;;2.33;;
35839;SDS011;35514;50.504;30.500;2023-02-22T02:41:08;7.68;;;3.45;;
35839;SDS011;35514;50.504;30.500;2023-02-22T02:43:38;5.45;;;2.85;;
35839;SDS011;35514;50.504;30.500;2023-02-22T02:46:07;5.55;;;2.95;;
35839;SDS011;35514;50.504;30.500;2023-02-22T02:48:38;5.65;;;3.20;;
35839;SDS011;35514;50.504;30.500;2023-02-22T02:51:08;7.72;;;3.28;;
35839;SDS011;35514;50.504;30.500;2023-02-22T02:53:41;8.40;;;3.20;;
35839;SDS011;35514;50.504;30.500;2023-02-22T02:56:10;8.98;;;3.03;;
35839;SDS011;35514;50.504;30.500;2023-02-22T02:58:43;5.45;;;3.33;;
35839;SDS011;35514;50.504;30.500;2023-02-22T03:01:10;8.43;;;3.17;;
35839;SDS011;35514;50.504;30.500;2023-02-22T03:03:45;8.63;;;3.15;;
35839;SDS011;35514;50.504;30.500;2023-02-22T03:06:20;8.77;;;4.03;;
35839;SDS011;35514;50.504;30.500;2023-02-22T03:08:52;8.52;;;3.85;;
35839;SDS011;35514;50.504;30.500;2023-02-22T03:11:20;6.70;;;3.13;;
35839;SDS011;35514;50.504;30.500;2023-02-22T03:13:49;11.98;;;3.47;;
35839;SDS011;35514;50.504;30.500;2023-02-22T03:16:24;8.48;;;3.60;;
35839;SDS011;35514;50.504;30.500;2023-02-22T03:18:59;7.00;;;2.88;;
35839;SDS011;35514;50.504;30.500;2023-02-22T03:21:32;8.10;;;3.15;;
35839;SDS011;35514;50.504;30.500;2023-02-22T03:24:03;6.32;;;3.17;;
35839;SDS011;35514;50.504;30.500;2023-02-22T03:26:34;4.07;;;2.72;;
35839;SDS011;35514;50.504;30.500;2023-02-22T03:29:02;6.13;;;2.90;;
35839;SDS011;35514;50.504;30.500;2023-02-22T03:31:32;5.70;;;3.15;;
35839;SDS011;35514;50.504;30.500;2023-02-22T03:34:05;4.72;;;3.22;;
35839;SDS011;35514;50.504;30.500;2023-02-22T03:36:34;6.18;;;2.95;;
35839;SDS011;35514;50.504;30.500;2023-02-22T03:39:05;6.50;;;3.42;;
35839;SDS011;35514;50.504;30.500;2023-02-22T03:41:34;10.18;;;4.45;;
35839;SDS011;35514;50.504;30.500;2023-02-22T03:44:04;11.02;;;4.00;;
35839;SDS011;35514;50.504;30.500;2023-02-22T03:46:33;8.90;;;4.40;;
35839;SDS011;35514;50.504;30.500;2023-02-22T03:49:03;10.02;;;4.45;;
35839;SDS011;35514;50.504;30.500;2023-02-22T03:51:34;9.50;;;4.30;;
35839;SDS011;35514;50.504;30.500;2023-02-22T03:54:02;8.35;;;3.90;;
35839;SDS011;35514;50.504;30.500;2023-02-22T03:56:32;8.77;;;3.80;;
35839;SDS011;35514;50.504;30.500;2023-02-22T03:59:02;10.55;;;4.40;;
35839;SDS011;35514;50.504;30.500;2023-02-22T04:01:30;8.32;;;4.47;;
35839;SDS011;35514;50.504;30.500;2023-02-22T04:03:57;10.43;;;5.30;;
35839;SDS011;35514;50.504;30.500;2023-02-22T04:06:25;10.52;;;3.53;;
35839;SDS011;35514;50.504;30.500;2023-02-22T04:08:54;12.52;;;4.45;;
35839;SDS011;35514;50.504;30.500;2023-02-22T04:11:22;9.55;;;3.88;;
35839;SDS011;35514;50.504;30.500;2023-02-22T04:13:49;11.30;;;4.32;;
35839;SDS011;35514;50.504;30.500;2023-02-22T04:16:20;8.10;;;3.75;;
35839;SDS011;35514;50.504;30.500;2023-02-22T04:18:47;7.35;;;4.05;;
35839;SDS011;35514;50.504;30.500;2023-02-22T04:21:15;12.20;;;4.57;;
35839;SDS011;35514;50.504;30.500;2023-02-22T04:23:43;9.68;;;4.07;;
35839;SDS011;35514;50.504;30.500;2023-02-22T04:26:12;10.40;;;4.15;;
35839;SDS011;35514;50.504;30.500;2023-02-22T04:28:39;8.10;;;3.90;;
35839;SDS011;35514;50.504;30.500;2023-02-22T04:31:07;7.55;;;3.65;;
35839;SDS011;35514;50.504;30.500;2023-02-22T04:33:35;8.70;;;4.15;;
35839;SDS011;35514;50.504;30.500;2023-02-22T04:36:02;12.10;;;5.40;;
35839;SDS011;35514;50.504;30.500;2023-02-22T04:38:30;11.18;;;4.57;;
35839;SDS011;35514;50.504;30.500;2023-02-22T04:40:57;13.10;;;4.45;;
35839;SDS011;35514;50.504;30.500;2023-02-22T04:43:26;15.13;;;5.82;;
35839;SDS011;35514;50.504;30.500;2023-02-22T04:45:54;10.57;;;4.43;;
35839;SDS011;35514;50.504;30.500;2023-02-22T04:48:22;9.10;;;3.38;;
35839;SDS011;35514;50.504;30.500;2023-02-22T04:50:49;5.65;;;3.20;;
35839;SDS011;35514;50.504;30.500;2023-02-22T04:53:17;10.20;;;3.90;;
35839;SDS011;35514;50.504;30.500;2023-02-22T04:55:45;7.50;;;3.42;;
35839;SDS011;35514;50.504;30.500;2023-02-22T04:58:12;13.50;;;3.90;;
35839;SDS011;35514;50.504;30.500;2023-02-22T05:00:41;8.43;;;4.00;;
35839;SDS011;35514;50.504;30.500;2023-02-22T05:03:09;9.02;;;4.25;;
35839;SDS011;35514;50.504;30.500;2023-02-22T05:05:36;9.50;;;4.35;;
35839;SDS011;35514;50.504;30.500;2023-02-22T05:08:04;7.45;;;3.83;;
35839;SDS011;35514;50.504;30.500;2023-02-22T05:10:31;8.32;;;3.88;;
35839;SDS011;35514;50.504;30.500;2023-02-22T05:12:59;12.60;;;3.60;;
35839;SDS011;35514;50.504;30.500;2023-02-22T05:15:29;8.95;;;4.18;;
35839;SDS011;35514;50.504;30.500;2023-02-22T05:17:58;10.32;;;3.60;;
35839;SDS011;35514;50.504;30.500;2023-02-22T05:20:26;8.02;;;3.50;;
35839;SDS011;35514;50.504;30.500;2023-02-22T05:22:54;16.17;;;5.03;;
35839;SDS011;35514;50.504;30.500;2023-02-22T05:25:22;10.18;;;3.53;;
35839;SDS011;35514;50.504;30.500;2023-02-22T05:27:50;12.90;;;4.03;;
35839;SDS011;35514;50.504;30.500;2023-02-22T05:30:18;9.88;;;4.20;;
35839;SDS011;35514;50.504;30.500;2023-02-22T05:32:46;16.98;;;5.25;;
35839;SDS011;35514;50.504;30.500;2023-02-22T05:35:15;9.48;;;4.38;;
35839;SDS011;35514;50.504;30.500;2023-02-22T05:37:42;13.35;;;4.80;;
35839;SDS011;35514;50.504;30.500;2023-02-22T05:40:10;9.93;;;4.93;;
35839;SDS011;35514;50.504;30.500;2023-02-22T05:42:39;11.82;;;4.50;;
35839;SDS011;35514;50.504;30.500;2023-02-22T05:45:10;12.80;;;4.70;;
35839;SDS011;35514;50.504;30.500;2023-02-22T05:47:38;12.18;;;4.45;;
35839;SDS011;35514;50.504;30.500;2023-02-22T05:50:06;11.35;;;4.93;;
35839;SDS011;35514;50.504;30.500;2023-02-22T05:52:36;13.65;;;4.00;;
35839;SDS011;35514;50.504;30.500;2023-02-22T05:55:07;13.63;;;4.70;;
35839;SDS011;35514;50.504;30.500;2023-02-22T05:57:35;10.65;;;4.65;;
35839;SDS011;35514;50.504;30.500;2023-02-22T06:00:04;8.27;;;3.80;;
35839;SDS011;35514;50.504;30.500;2023-02-22T06:02:32;9.40;;;4.78;;
35839;SDS011;35514;50.504;30.500;2023-02-22T06:05:00;11.20;;;4.93;;
35839;SDS011;35514;50.504;30.500;2023-02-22T06:07:28;21.02;;;7.00;;
35839;SDS011;35514;50.504;30.500;2023-02-22T06:09:59;14.65;;;5.00;;
35839;SDS011;35514;50.504;30.500;2023-02-22T06:12:29;16.05;;;5.47;;
35839;SDS011;35514;50.504;30.500;2023-02-22T06:14:57;13.02;;;5.13;;
35839;SDS011;35514;50.504;30.500;2023-02-22T06:17:25;11.68;;;5.18;;
35839;SDS011;35514;50.504;30.500;2023-02-22T06:19:52;10.85;;;4.72;;
35839;SDS011;35514;50.504;30.500;2023-02-22T06:22:20;13.35;;;5.45;;
35839;SDS011;35514;50.504;30.500;2023-02-22T06:24:47;14.85;;;6.10;;
35839;SDS011;35514;50.504;30.500;2023-02-22T06:27:16;11.75;;;4.45;;
35839;SDS011;35514;50.504;30.500;2023-02-22T06:29:44;12.73;;;4.60;;
35839;SDS011;35514;50.504;30.500;2023-02-22T06:32:12;14.15;;;5.35;;
35839;SDS011;35514;50.504;30.500;2023-02-22T06:34:40;14.75;;;6.07;;
35839;SDS011;35514;50.504;30.500;2023-02-22T06:37:08;14.50;;;5.45;;
35839;SDS011;35514;50.504;30.500;2023-02-22T06:39:35;19.20;;;6.35;;
35839;SDS011;35514;50.504;30.500;2023-02-22T06:42:03;11.20;;;5.10;;
35839;SDS011;35514;50.504;30.500;2023-02-22T06:44:32;11.68;;;4.82;;
35839;SDS011;35514;50.504;30.500;2023-02-22T06:46:59;15.10;;;5.45;;
35839;SDS011;35514;50.504;30.500;2023-02-22T06:49:27;12.18;;;4.95;;
35839;SDS011;35514;50.504;30.500;2023-02-22T06:51:55;12.82;;;4.90;;
35839;SDS011;35514;50.504;30.500;2023-02-22T06:54:22;14.30;;;5.65;;
35839;SDS011;35514;50.504;30.500;2023-02-22T06:56:51;20.83;;;5.40;;
35839;SDS011;35514;50.504;30.500;2023-02-22T06:59:18;15.25;;;6.05;;
35839;SDS011;35514;50.504;30.500;2023-02-22T07:01:47;12.70;;;6.22;;
35839;SDS011;35514;50.504;30.500;2023-02-22T07:04:15;18.60;;;5.45;;
35839;SDS011;35514;50.504;30.500;2023-02-22T07:06:44;11.25;;;5.03;;
35839;SDS011;35514;50.504;30.500;2023-02-22T07:09:12;8.60;;;4.47;;
35839;SDS011;35514;50.504;30.500;2023-02-22T07:11:43;12.80;;;5.13;;
35839;SDS011;35514;50.504;30.500;2023-02-22T07:14:10;10.90;;;5.10;;
35839;SDS011;35514;50.504;30.500;2023-02-22T07:16:38;11.38;;;5.57;;
35839;SDS011;35514;50.504;30.500;2023-02-22T07:19:07;8.98;;;4.35;;
35839;SDS011;35514;50.504;30.500;2023-02-22T07:21:34;11.85;;;4.13;;
35839;SDS011;35514;50.504;30.500;2023-02-22T07:24:02;11.63;;;4.35;;
35839;SDS011;35514;50.504;30.500;2023-02-22T07:26:30;10.32;;;4.63;;
35839;SDS011;35514;50.504;30.500;2023-02-22T07:29:04;14.15;;;4.82;;
35839;SDS011;35514;50.504;30.500;2023-02-22T07:31:33;8.18;;;4.57;;
35839;SDS011;35514;50.504;30.500;2023-02-22T07:34:01;10.70;;;4.65;;
35839;SDS011;35514;50.504;30.500;2023-02-22T07:36:30;11.18;;;5.05;;
35839;SDS011;35514;50.504;30.500;2023-02-22T07:38:57;10.00;;;4.30;;
35839;SDS011;35514;50.504;30.500;2023-02-22T07:41:25;9.02;;;4.38;;
35839;SDS011;35514;50.504;30.500;2023-02-22T07:43:53;9.23;;;4.43;;
35839;SDS011;35514;50.504;30.500;2023-02-22T07:46:20;8.20;;;4.10;;
35839;SDS011;35514;50.504;30.500;2023-02-22T07:48:48;12.50;;;4.65;;
35839;SDS011;35514;50.504;30.500;2023-02-22T07:51:16;10.68;;;4.45;;
35839;SDS011;35514;50.504;30.500;2023-02-22T07:53:47;9.10;;;4.18;;
35839;SDS011;35514;50.504;30.500;2023-02-22T07:56:14;7.30;;;4.53;;
35839;SDS011;35514;50.504;30.500;2023-02-22T07:58:43;8.70;;;4.53;;
35839;SDS011;35514;50.504;30.500;2023-02-22T08:01:11;8.25;;;4.30;;
35839;SDS011;35514;50.504;30.500;2023-02-22T08:03:39;9.65;;;4.30;;
35839;SDS011;35514;50.504;30.500;2023-02-22T08:06:07;8.55;;;4.20;;
35839;SDS011;35514;50.504;30.500;2023-02-22T08:08:35;10.35;;;5.10;;
35839;SDS011;35514;50.504;30.500;2023-02-22T08:11:04;8.80;;;3.83;;
35839;SDS011;35514;50.504;30.500;2023-02-22T08:13:32;12.00;;;4.00;;
35839;SDS011;35514;50.504;30.500;2023-02-22T08:15:59;8.48;;;3.63;;
35839;SDS011;35514;50.504;30.500;2023-02-22T08:18:27;9.35;;;3.40;;
35839;SDS011;35514;50.504;30.500;2023-02-22T08:20:55;8.15;;;3.50;;
35839;SDS011;35514;50.504;30.500;2023-02-22T08:23:23;10.93;;;3.97;;
35839;SDS011;35514;50.504;30.500;2023-02-22T08:25:52;6.95;;;3.42;;
35839;SDS011;35514;50.504;30.500;2023-02-22T08:28:22;10.57;;;4.43;;
35839;SDS011;35514;50.504;30.500;2023-02-22T08:30:50;9.30;;;4.05;;
35839;SDS011;35514;50.504;30.500;2023-02-22T08:33:18;7.70;;;4.00;;
35839;SDS011;35514;50.504;30.500;2023-02-22T08:35:45;9.38;;;3.67;;
35839;SDS011;35514;50.504;30.500;2023-02-22T08:38:15;8.57;;;3.78;;
35839;SDS011;35514;50.504;30.500;2023-02-22T08:40:44;6.38;;;3.85;;
35839;SDS011;35514;50.504;30.500;2023-02-22T08:43:11;8.73;;;4.13;;
35839;SDS011;35514;50.504;30.500;2023-02-22T08:45:41;7.25;;;3.72;;
35839;SDS011;35514;50.504;30.500;2023-02-22T08:48:09;9.25;;;4.43;;
35839;SDS011;35514;50.504;30.500;2023-02-22T08:50:37;9.18;;;4.13;;
35839;SDS011;35514;50.504;30.500;2023-02-22T08:53:07;6.10;;;3.22;;
35839;SDS011;35514;50.504;30.500;2023-02-22T08:55:36;7.30;;;3.50;;
35839;SDS011;35514;50.504;30.500;2023-02-22T08:58:04;7.18;;;3.67;;
35839;SDS011;35514;50.504;30.500;2023-02-22T09:00:35;6.40;;;3.22;;
35839;SDS011;35514;50.504;30.500;2023-02-22T09:03:06;7.38;;;3.60;;
35839;SDS011;35514;50.504;30.500;2023-02-22T09:05:33;7.65;;;3.40;;
35839;SDS011;35514;50.504;30.500;2023-02-22T09:08:01;7.78;;;3.60;;
35839;SDS011;35514;50.504;30.500;2023-02-22T09:10:30;7.60;;;3.45;;
35839;SDS011;35514;50.504;30.500;2023-02-22T09:12:59;7.45;;;3.67;;
35839;SDS011;35514;50.504;30.500;2023-02-22T09:15:27;6.65;;;3.08;;
35839;SDS011;35514;50.504;30.500;2023-02-22T09:17:55;7.68;;;2.67;;
35839;SDS011;35514;50.504;30.500;2023-02-22T09:20:24;6.65;;;3.22;;
35839;SDS011;35514;50.504;30.500;2023-02-22T09:22:52;7.45;;;3.30;;
35839;SDS011;35514;50.504;30.500;2023-02-22T09:25:20;5.03;;;2.58;;
35839;SDS011;35514;50.504;30.500;2023-02-22T09:27:48;5.70;;;3.20;;
35839;SDS011;35514;50.504;30.500;2023-02-22T09:30:18;5.15;;;2.78;;
35839;SDS011;35514;50.504;30.500;2023-02-22T09:32:46;5.53;;;3.05;;
35839;SDS011;35514;50.504;30.500;2023-02-22T09:35:14;5.00;;;2.95;;
35839;SDS011;35514;50.504;30.500;2023-02-22T09:37:43;7.03;;;3.50;;
35839;SDS011;35514;50.504;30.500;2023-02-22T09:40:14;6.35;;;3.10;;
35839;SDS011;35514;50.504;30.500;2023-02-22T09:45:37;6.70;;;3.05;;
35839;SDS011;35514;50.504;30.500;2023-02-22T09:48:10;6.18;;;3.28;;
35839;SDS011;35514;50.504;30.500;2023-02-22T09:50:47;6.22;;;3.28;;
35839;SDS011;35514;50.504;30.500;2023-02-22T09:53:19;5.90;;;3.35;;
35839;SDS011;35514;50.504;30.500;2023-02-22T09:55:55;6.13;;;3.22;;
35839;SDS011;35514;50.504;30.500;2023-02-22T09:58:25;6.72;;;3.10;;
35839;SDS011;35514;50.504;30.500;2023-02-22T10:01:02;4.90;;;3.17;;
35839;SDS011;35514;50.504;30.500;2023-02-22T10:03:32;6.22;;;3.50;;
35839;SDS011;35514;50.504;30.500;2023-02-22T10:06:03;5.93;;;3.38;;
35839;SDS011;35514;50.504;30.500;2023-02-22T10:08:35;7.28;;;3.72;;
35839;SDS011;35514;50.504;30.500;2023-02-22T10:11:05;5.43;;;3.40;;
35839;SDS011;35514;50.504;30.500;2023-02-22T10:13:38;6.82;;;3.25;;
35839;SDS011;35514;50.504;30.500;2023-02-22T10:16:11;8.20;;;3.60;;
35839;SDS011;35514;50.504;30.500;2023-02-22T10:18:48;5.70;;;3.40;;
35839;SDS011;35514;50.504;30.500;2023-02-22T10:21:19;6.20;;;3.45;;
35839;SDS011;35514;50.504;30.500;2023-02-22T10:23:56;6.03;;;2.90;;
35839;SDS011;35514;50.504;30.500;2023-02-22T10:26:28;6.53;;;2.90;;
35839;SDS011;35514;50.504;30.500;2023-02-22T10:28:57;7.57;;;4.15;;
35839;SDS011;35514;50.504;30.500;2023-02-22T10:31:29;10.23;;;3.85;;
35839;SDS011;35514;50.504;30.500;2023-02-22T10:33:59;8.65;;;4.13;;
35839;SDS011;35514;50.504;30.500;2023-02-22T10:36:28;6.75;;;3.70;;
35839;SDS011;35514;50.504;30.500;2023-02-22T10:38:58;8.30;;;3.67;;
35839;SDS011;35514;50.504;30.500;2023-02-22T10:41:27;11.38;;;3.92;;
35839;SDS011;35514;50.504;30.500;2023-02-22T10:43:55;14.45;;;3.88;;
35839;SDS011;35514;50.504;30.500;2023-02-22T10:46:23;7.60;;;3.50;;
35839;SDS011;35514;50.504;30.500;2023-02-22T10:48:54;10.40;;;3.20;;
35839;SDS011;35514;50.504;30.500;2023-02-22T10:51:22;7.72;;;4.00;;
35839;SDS011;35514;50.504;30.500;2023-02-22T10:53:53;6.78;;;3.58;;
35839;SDS011;35514;50.504;30.500;2023-02-22T10:56:24;7.15;;;3.80;;
35839;SDS011;35514;50.504;30.500;2023-02-22T10:58:53;8.10;;;3.13;;
35839;SDS011;35514;50.504;30.500;2023-02-22T11:01:24;7.55;;;3.45;;
35839;SDS011;35514;50.504;30.500;2023-02-22T11:03:56;6.57;;;3.63;;
35839;SDS011;35514;50.504;30.500;2023-02-22T11:06:24;6.20;;;3.72;;
35839;SDS011;35514;50.504;30.500;2023-02-22T11:09:17;7.90;;;3.67;;
35839;SDS011;35514;50.504;30.500;2023-02-22T11:12:05;6.65;;;3.58;;
35839;SDS011;35514;50.504;30.500;2023-02-22T11:14:33;7.18;;;3.88;;
35839;SDS011;35514;50.504;30.500;2023-02-22T11:17:04;11.35;;;4.97;;
35839;SDS011;35514;50.504;30.500;2023-02-22T11:19:33;8.07;;;3.80;;
35839;SDS011;35514;50.504;30.500;2023-02-22T11:22:08;7.55;;;3.90;;
35839;SDS011;35514;50.504;30.500;2023-02-22T11:24:42;7.95;;;3.80;;
35839;SDS011;35514;50.504;30.500;2023-02-22T11:27:26;7.88;;;3.88;;
35839;SDS011;35514;50.504;30.500;2023-02-22T11:29:54;8.55;;;3.53;;
35839;SDS011;35514;50.504;30.500;2023-02-22T11:32:23;6.60;;;3.33;;
35839;SDS011;35514;50.504;30.500;2023-02-22T11:34:50;8.43;;;3.65;;
35839;SDS011;35514;50.504;30.500;2023-02-22T11:37:34;8.93;;;4.15;;
35839;SDS011;35514;50.504;30.500;2023-02-22T11:40:04;8.98;;;4.43;;
35839;SDS011;35514;50.504;30.500;2023-02-22T11:42:38;8.90;;;4.57;;
35839;SDS011;35514;50.504;30.500;2023-02-22T11:45:30;9.10;;;4.80;;
35839;SDS011;35514;50.504;30.500;2023-02-22T11:47:59;11.18;;;4.35;;
35839;SDS011;35514;50.504;30.500;2023-02-22T11:50:28;11.73;;;4.57;;
35839;SDS011;35514;50.504;30.500;2023-02-22T11:53:03;8.68;;;4.35;;
35839;SDS011;35514;50.504;30.500;2023-02-22T11:55:35;9.82;;;4.25;;
35839;SDS011;35514;50.504;30.500;2023-02-22T11:58:19;9.48;;;4.47;;
35839;SDS011;35514;50.504;30.500;2023-02-22T12:00:54;6.57;;;3.83;;
35839;SDS011;35514;50.504;30.500;2023-02-22T12:03:27;7.60;;;3.92;;
35839;SDS011;35514;50.504;30.500;2023-02-22T12:06:03;7.32;;;3.47;;
35839;SDS011;35514;50.504;30.500;2023-02-22T12:08:35;7.85;;;3.83;;
35839;SDS011;35514;50.504;30.500;2023-02-22T12:11:11;10.05;;;4.78;;
35839;SDS011;35514;50.504;30.500;2023-02-22T12:16:32;7.50;;;3.70;;
35839;SDS011;35514;50.504;30.500;2023-02-22T12:19:07;8.20;;;3.60;;
35839;SDS011;35514;50.504;30.500;2023-02-22T12:21:38;8.32;;;3.97;;
35839;SDS011;35514;50.504;30.500;2023-02-22T12:24:07;6.47;;;3.67;;
35839;SDS011;35514;50.504;30.500;2023-02-22T12:26:40;8.45;;;4.45;;
35839;SDS011;35514;50.504;30.500;2023-02-22T12:29:10;10.52;;;4.45;;
35839;SDS011;35514;50.504;30.500;2023-02-22T12:31:42;10.45;;;4.88;;
35839;SDS011;35514;50.504;30.500;2023-02-22T12:34:14;9.20;;;4.80;;
35839;SDS011;35514;50.504;30.500;2023-02-22T12:36:46;10.37;;;5.03;;
35839;SDS011;35514;50.504;30.500;2023-02-22T12:39:22;8.77;;;4.25;;
35839;SDS011;35514;50.504;30.500;2023-02-22T12:41:53;9.15;;;4.47;;
35839;SDS011;35514;50.504;30.500;2023-02-22T12:44:22;9.02;;;4.53;;
35839;SDS011;35514;50.504;30.500;2023-02-22T12:46:52;7.03;;;3.70;;
35839;SDS011;35514;50.504;30.500;2023-02-22T12:49:24;7.22;;;4.07;;
35839;SDS011;35514;50.504;30.500;2023-02-22T12:51:54;16.42;;;4.50;;
35839;SDS011;35514;50.504;30.500;2023-02-22T12:54:33;8.95;;;4.03;;
35839;SDS011;35514;50.504;30.500;2023-02-22T12:57:04;8.60;;;4.28;;
35839;SDS011;35514;50.504;30.500;2023-02-22T12:59:36;7.80;;;3.83;;
35839;SDS011;35514;50.504;30.500;2023-02-22T13:02:10;10.05;;;3.53;;
35839;SDS011;35514;50.504;30.500;2023-02-22T13:07:35;9.00;;;4.40;;
35839;SDS011;35514;50.504;30.500;2023-02-22T13:12:54;9.35;;;4.30;;
35839;SDS011;35514;50.504;30.500;2023-02-22T13:15:29;6.68;;;3.78;;
35839;SDS011;35514;50.504;30.500;2023-02-22T13:18:01;13.52;;;6.07;;
35839;SDS011;35514;50.504;30.500;2023-02-22T13:20:31;8.30;;;3.55;;
35839;SDS011;35514;50.504;30.500;2023-02-22T13:23:02;9.10;;;4.63;;
35839;SDS011;35514;50.504;30.500;2023-02-22T13:25:34;9.90;;;4.20;;
35839;SDS011;35514;50.504;30.500;2023-02-22T13:28:07;9.10;;;3.83;;
35839;SDS011;35514;50.504;30.500;2023-02-22T13:30:38;8.07;;;4.45;;
35839;SDS011;35514;50.504;30.500;2023-02-22T13:33:17;8.30;;;4.03;;
35839;SDS011;35514;50.504;30.500;2023-02-22T13:35:58;9.35;;;4.03;;
35839;SDS011;35514;50.504;30.500;2023-02-22T13:41:21;6.85;;;3.67;;
35839;SDS011;35514;50.504;30.500;2023-02-22T13:43:57;9.63;;;4.07;;
35839;SDS011;35514;50.504;30.500;2023-02-22T13:46:30;8.70;;;3.92;;
35839;SDS011;35514;50.504;30.500;2023-02-22T13:49:22;11.65;;;4.75;;
35839;SDS011;35514;50.504;30.500;2023-02-22T13:51:55;14.80;;;4.13;;
35839;SDS011;35514;50.504;30.500;2023-02-22T13:54:25;5.70;;;3.42;;
35839;SDS011;35514;50.504;30.500;2023-02-22T13:56:55;10.20;;;4.47;;
35839;SDS011;35514;50.504;30.500;2023-02-22T13:59:25;8.88;;;3.83;;
35839;SDS011;35514;50.504;30.500;2023-02-22T14:01:54;9.25;;;4.13;;
35839;SDS011;35514;50.504;30.500;2023-02-22T14:10:01;9.35;;;4.35;;
35839;SDS011;35514;50.504;30.500;2023-02-22T14:12:53;8.15;;;3.97;;
35839;SDS011;35514;50.504;30.500;2023-02-22T14:15:29;12.02;;;4.28;;
35839;SDS011;35514;50.504;30.500;2023-02-22T14:17:57;11.77;;;4.63;;
35839;SDS011;35514;50.504;30.500;2023-02-22T14:20:27;11.55;;;4.63;;
35839;SDS011;35514;50.504;30.500;2023-02-22T14:25:30;9.25;;;3.85;;
35839;SDS011;35514;50.504;30.500;2023-02-22T14:27:59;9.13;;;4.47;;
35839;SDS011;35514;50.504;30.500;2023-02-22T14:30:28;11.00;;;4.65;;
35839;SDS011;35514;50.504;30.500;2023-02-22T14:32:56;14.40;;;4.53;;
35839;SDS011;35514;50.504;30.500;2023-02-22T14:35:26;13.07;;;4.05;;
35839;SDS011;35514;50.504;30.500;2023-02-22T14:38:13;9.88;;;4.22;;
35839;SDS011;35514;50.504;30.500;2023-02-22T14:40:46;10.77;;;4.18;;
35839;SDS011;35514;50.504;30.500;2023-02-22T14:43:15;9.52;;;4.30;;
35839;SDS011;35514;50.504;30.500;2023-02-22T14:45:46;9.75;;;4.15;;
35839;SDS011;35514;50.504;30.500;2023-02-22T14:48:17;10.50;;;4.72;;
35839;SDS011;35514;50.504;30.500;2023-02-22T14:50:47;12.68;;;5.40;;
35839;SDS011;35514;50.504;30.500;2023-02-22T14:53:19;12.25;;;5.15;;
35839;SDS011;35514;50.504;30.500;2023-02-22T14:55:52;9.52;;;4.38;;
35839;SDS011;35514;50.504;30.500;2023-02-22T14:58:23;10.95;;;4.72;;
35839;SDS011;35514;50.504;30.500;2023-02-22T15:00:52;12.77;;;5.32;;
35839;SDS011;35514;50.504;30.500;2023-02-22T15:03:25;15.60;;;5.38;;
35839;SDS011;35514;50.504;30.500;2023-02-22T15:05:54;11.95;;;4.55;;
35839;SDS011;35514;50.504;30.500;2023-02-22T15:08:25;12.93;;;4.70;;
35839;SDS011;35514;50.504;30.500;2023-02-22T15:10:55;8.98;;;4.22;;
35839;SDS011;35514;50.504;30.500;2023-02-22T15:13:27;11.77;;;4.60;;
35839;SDS011;35514;50.504;30.500;2023-02-22T15:15:58;11.98;;;4.72;;